Time;durP1;ratioP1;P1;durP2;ratioP2;P2;SDS_P1;SDS_P2;PMS_P1;PMS_P2;Temp;Humidity;BMP_temperature;BMP_pressure;BME280_temperature;BME280_humidity;BME280_pressure;Samples;Min_cycle;Max_cycle;Signal;HPM_P1;HPM_P2
2021/08/24 00:00:35;;;;;;;11.33;7.60;;;16.30;98.90;;;;;;5050544;28;20192;-77
2021/08/24 00:03:01;;;;;;;13.07;7.43;;;16.30;98.80;;;;;;5050815;28;20224;-77
2021/08/24 00:05:31;;;;;;;13.00;8.40;;;16.30;98.80;;;;;;5048962;28;20933;-75
2021/08/24 00:07:57;;;;;;;12.70;7.60;;;16.20;98.70;;;;;;5044973;28;20463;-76
2021/08/24 00:10:25;;;;;;;11.57;7.53;;;16.20;98.70;;;;;;5045948;28;20457;-76
2021/08/24 00:12:51;;;;;;;12.80;7.70;;;16.20;98.90;;;;;;5049594;28;20517;-76
2021/08/24 00:15:18;;;;;;;11.27;6.93;;;16.30;98.90;;;;;;5042306;28;20443;-75
2021/08/24 00:21:06;;;;;;;11.63;7.53;;;16.30;98.70;;;;;;5044548;28;20406;-76
2021/08/24 00:23:32;;;;;;;12.83;7.90;;;16.40;98.60;;;;;;5044015;28;20422;-76
2021/08/24 00:25:59;;;;;;;12.80;8.30;;;16.40;98.40;;;;;;5050587;28;20429;-76
2021/08/24 00:28:27;;;;;;;12.23;7.93;;;16.30;98.40;;;;;;5050384;28;21035;-76
2021/08/24 00:30:53;;;;;;;12.87;7.60;;;16.30;98.40;;;;;;5048190;28;20425;-75
2021/08/24 00:33:20;;;;;;;14.20;7.90;;;16.30;98.40;;;;;;5048685;28;20504;-73
2021/08/24 00:35:46;;;;;;;11.57;8.13;;;16.30;98.40;;;;;;5050090;28;20439;-74
2021/08/24 00:38:16;;;;;;;10.43;7.13;;;16.30;98.50;;;;;;5050207;28;20774;-73
2021/08/24 00:40:43;;;;;;;8.60;6.70;;;16.30;98.50;;;;;;5049662;28;20478;-74
2021/08/24 00:43:10;;;;;;;12.37;7.30;;;16.30;98.50;;;;;;5044020;28;21082;-74
2021/08/24 00:45:40;;;;;;;12.07;7.50;;;16.40;98.40;;;;;;5049256;28;20428;-74
2021/08/24 00:48:06;;;;;;;15.50;8.90;;;16.30;98.40;;;;;;5049039;28;20572;-74
2021/08/24 00:50:38;;;;;;;11.13;6.63;;;16.40;98.50;;;;;;5048328;28;20415;-75
2021/08/24 00:53:13;;;;;;;11.00;6.93;;;16.40;98.40;;;;;;5049778;28;20443;-75
2021/08/24 00:55:41;;;;;;;11.70;8.17;;;16.40;98.40;;;;;;5048848;28;20435;-74
2021/08/24 00:58:10;;;;;;;11.40;7.50;;;16.40;98.20;;;;;;5042391;28;20429;-75
2021/08/24 01:00:37;;;;;;;14.37;8.40;;;16.40;97.80;;;;;;5045238;28;20444;-73
2021/08/24 01:03:11;;;;;;;9.73;7.00;;;16.40;97.50;;;;;;5049876;28;20496;-75
2021/08/24 01:05:38;;;;;;;11.73;6.37;;;16.40;96.20;;;;;;5046691;28;20838;-73
2021/08/24 01:08:08;;;;;;;10.50;6.70;;;16.30;95.30;;;;;;5046651;28;20421;-74
2021/08/24 01:10:47;;;;;;;10.80;6.77;;;16.30;95.10;;;;;;5049049;28;20873;-76
2021/08/24 01:13:35;;;;;;;9.17;6.00;;;16.40;95.10;;;;;;5051570;28;20890;-75
2021/08/24 01:16:10;;;;;;;8.20;6.33;;;16.40;95.10;;;;;;5052083;28;20421;-76
2021/08/24 01:19:09;;;;;;;11.33;6.30;;;16.30;95.10;;;;;;5070912;28;20426;-77
2021/08/24 01:21:35;;;;;;;10.83;6.80;;;16.30;95.10;;;;;;5049890;28;20463;-75
2021/08/24 01:24:09;;;;;;;12.13;6.90;;;16.30;94.80;;;;;;5050669;28;20430;-77
2021/08/24 01:27:01;;;;;;;9.67;6.33;;;16.30;94.90;;;;;;5046346;28;20181;-76
2021/08/24 01:29:58;;;;;;;8.90;5.83;;;16.30;94.90;;;;;;5051661;28;20407;-75
2021/08/24 01:32:49;;;;;;;9.43;6.70;;;16.20;94.90;;;;;;5041378;28;20433;-74
2021/08/24 01:35:44;;;;;;;10.83;6.97;;;16.20;95.30;;;;;;5047273;28;20469;-75
2021/08/24 01:38:19;;;;;;;8.87;6.70;;;16.30;95.20;;;;;;5049880;28;20517;-75
2021/08/24 01:41:10;;;;;;;10.03;6.43;;;16.30;95.40;;;;;;5048504;28;20421;-74
2021/08/24 01:44:02;;;;;;;11.13;5.73;;;16.30;95.50;;;;;;5049842;28;20549;-75
2021/08/24 01:46:42;;;;;;;11.50;6.37;;;16.30;95.30;;;;;;5054785;28;20441;-75
2021/08/24 01:49:07;;;;;;;9.47;5.90;;;16.30;95.40;;;;;;5054271;28;20831;-76
2021/08/24 01:51:44;;;;;;;9.23;6.23;;;16.20;95.40;;;;;;5051794;28;20437;-75
2021/08/24 01:54:32;;;;;;;7.70;5.63;;;16.30;95.60;;;;;;5052155;28;20191;-76
2021/08/24 01:56:59;;;;;;;9.40;6.17;;;16.20;95.40;;;;;;5055496;28;20475;-75
2021/08/24 01:59:31;;;;;;;8.77;5.70;;;16.10;95.40;;;;;;5040320;28;20510;-77
2021/08/24 02:02:11;;;;;;;8.40;5.53;;;16.10;95.30;;;;;;5049352;28;20471;-76
2021/08/24 02:05:03;;;;;;;8.40;6.20;;;16.00;95.30;;;;;;5044185;28;20479;-76
2021/08/24 02:07:32;;;;;;;11.03;4.83;;;16.00;95.10;;;;;;5043546;28;20433;-75
2021/08/24 02:10:03;;;;;;;10.93;5.17;;;15.90;95.10;;;;;;5051410;28;20505;-75
2021/08/24 02:12:33;;;;;;;6.73;5.10;;;15.90;95.00;;;;;;5051272;28;21113;-76
2021/08/24 02:15:01;;;;;;;7.53;4.97;;;15.90;94.70;;;;;;5052291;28;20519;-75
2021/08/24 02:17:31;;;;;;;9.70;4.70;;;15.90;94.50;;;;;;5050867;28;20424;-76
2021/08/24 02:20:08;;;;;;;13.40;5.53;;;15.80;94.70;;;;;;5055355;28;20449;-76
2021/08/24 02:22:41;;;;;;;9.30;5.13;;;15.70;94.70;;;;;;5052512;28;20499;-75
2021/08/24 02:25:15;;;;;;;8.47;5.00;;;15.70;94.90;;;;;;5045515;28;20420;-74
2021/08/24 02:27:50;;;;;;;8.73;5.00;;;15.60;95.10;;;;;;5048618;28;20435;-75
2021/08/24 02:30:16;;;;;;;6.50;4.80;;;15.60;95.10;;;;;;5048299;28;20763;-76
2021/08/24 02:32:45;;;;;;;8.10;4.67;;;15.50;95.20;;;;;;5047889;28;20546;-75
2021/08/24 02:35:45;;;;;;;8.73;5.40;;;15.50;95.20;;;;;;5052486;28;20198;-75
2021/08/24 02:38:23;;;;;;;10.17;5.60;;;15.40;95.20;;;;;;5049432;28;20431;-76
2021/08/24 02:41:03;;;;;;;6.00;4.50;;;15.30;95.50;;;;;;5053460;28;20413;-75
2021/08/24 02:43:38;;;;;;;12.17;5.30;;;15.30;95.60;;;;;;5044957;28;20470;-74
2021/08/24 02:46:03;;;;;;;7.07;4.67;;;15.20;95.50;;;;;;5042788;28;20865;-74
2021/08/24 02:48:31;;;;;;;8.10;4.63;;;15.20;95.60;;;;;;5046984;28;20414;-75
2021/08/24 02:50:58;;;;;;;7.27;5.40;;;15.10;95.70;;;;;;5048839;28;20182;-75
2021/08/24 02:53:24;;;;;;;12.00;5.07;;;15.10;95.90;;;;;;5045598;28;20433;-76
2021/08/24 02:55:51;;;;;;;8.00;5.13;;;15.00;96.10;;;;;;5046893;28;20500;-74
2021/08/24 02:58:17;;;;;;;9.20;5.43;;;15.00;96.30;;;;;;5042231;28;20511;-75
2021/08/24 03:00:45;;;;;;;8.70;5.60;;;14.90;96.60;;;;;;5045962;28;20506;-75
2021/08/24 03:03:11;;;;;;;8.37;5.40;;;14.80;96.80;;;;;;5050492;28;20474;-75
2021/08/24 03:05:36;;;;;;;9.40;5.73;;;14.70;97.00;;;;;;5045726;28;20427;-75
2021/08/24 03:08:03;;;;;;;7.67;4.97;;;14.70;97.20;;;;;;5047720;28;20268;-76
2021/08/24 03:10:32;;;;;;;8.33;5.40;;;14.60;97.30;;;;;;5044576;28;20261;-76
2021/08/24 03:13:10;;;;;;;11.97;5.83;;;14.60;97.40;;;;;;5046236;28;21069;-75
2021/08/24 03:15:52;;;;;;;9.17;6.17;;;14.50;97.40;;;;;;5051306;28;20510;-76
2021/08/24 03:18:23;;;;;;;10.27;6.00;;;14.50;97.40;;;;;;5049166;28;20419;-76
2021/08/24 03:20:52;;;;;;;11.30;7.27;;;14.30;97.60;;;;;;5050889;28;20758;-75
2021/08/24 03:23:21;;;;;;;11.00;6.10;;;14.20;97.80;;;;;;5052134;28;20553;-75
2021/08/24 03:25:48;;;;;;;10.40;6.37;;;14.20;98.00;;;;;;5048411;28;20419;-76
2021/08/24 03:28:16;;;;;;;8.70;5.97;;;14.10;98.20;;;;;;5042769;28;20468;-76
2021/08/24 03:30:43;;;;;;;10.30;6.03;;;14.10;98.40;;;;;;5045914;28;20431;-75
2021/08/24 03:33:11;;;;;;;11.97;6.33;;;14.10;98.50;;;;;;5039995;28;20455;-75
2021/08/24 03:35:37;;;;;;;8.00;5.30;;;14.10;98.50;;;;;;5043839;28;20496;-75
2021/08/24 03:38:05;;;;;;;10.30;6.30;;;14.00;98.60;;;;;;5045551;28;20416;-75
2021/08/24 03:40:31;;;;;;;14.33;6.60;;;14.00;98.70;;;;;;5034731;28;20991;-75
2021/08/24 03:42:57;;;;;;;11.07;6.47;;;13.90;98.70;;;;;;5050541;28;20532;-75
2021/08/24 03:45:23;;;;;;;8.77;5.60;;;13.90;98.70;;;;;;5059365;28;20423;-76
2021/08/24 03:47:49;;;;;;;9.37;7.00;;;13.80;98.70;;;;;;5056069;28;20419;-76
2021/08/24 03:50:14;;;;;;;14.50;6.90;;;13.80;98.80;;;;;;5054346;28;20441;-74
2021/08/24 03:52:40;;;;;;;13.10;6.77;;;13.70;98.90;;;;;;5054736;28;20231;-75
2021/08/24 03:55:06;;;;;;;10.70;6.87;;;13.70;99.00;;;;;;5053959;28;20235;-75
2021/08/24 03:57:32;;;;;;;12.90;7.00;;;13.60;99.20;;;;;;5046907;28;20563;-75
2021/08/24 03:59:58;;;;;;;10.37;6.80;;;13.60;99.20;;;;;;5050092;28;20439;-76
2021/08/24 04:02:25;;;;;;;10.93;6.80;;;13.60;99.30;;;;;;5046614;28;20216;-75
2021/08/24 04:04:51;;;;;;;15.63;7.53;;;13.60;99.50;;;;;;5050186;28;20193;-77
2021/08/24 04:07:17;;;;;;;9.93;6.80;;;13.60;99.50;;;;;;5045128;28;20885;-75
2021/08/24 04:09:42;;;;;;;14.60;7.80;;;13.50;99.60;;;;;;5045671;28;20871;-76
2021/08/24 04:12:09;;;;;;;14.67;7.93;;;13.50;99.60;;;;;;5043675;28;20209;-77
2021/08/24 04:14:35;;;;;;;13.37;7.20;;;13.50;99.70;;;;;;5051242;28;20249;-76
2021/08/24 04:17:00;;;;;;;12.70;7.53;;;13.40;99.90;;;;;;5050849;28;20522;-76
2021/08/24 04:19:26;;;;;;;14.03;8.30;;;13.40;99.90;;;;;;5049740;28;20192;-75
2021/08/24 04:21:52;;;;;;;10.60;7.00;;;13.40;99.90;;;;;;5048931;28;20213;-75
2021/08/24 04:24:17;;;;;;;11.97;7.27;;;13.40;99.90;;;;;;5049952;28;20181;-76
2021/08/24 04:26:43;;;;;;;13.57;8.53;;;13.30;99.90;;;;;;5043091;28;20236;-75
2021/08/24 04:29:09;;;;;;;11.47;7.07;;;13.40;99.90;;;;;;5045515;28;20181;-75
2021/08/24 04:31:38;;;;;;;11.30;7.10;;;13.40;99.90;;;;;;5040272;28;20216;-76
2021/08/24 04:34:05;;;;;;;13.93;7.50;;;13.40;99.90;;;;;;5042828;28;20423;-77
2021/08/24 04:36:31;;;;;;;11.83;7.60;;;13.40;99.90;;;;;;5049466;28;20447;-76
2021/08/24 04:38:57;;;;;;;13.90;7.57;;;13.40;99.90;;;;;;5048531;28;20419;-76
2021/08/24 04:41:23;;;;;;;11.73;7.17;;;13.30;99.90;;;;;;5041335;28;20532;-75
2021/08/24 04:43:49;;;;;;;13.37;8.17;;;13.30;99.90;;;;;;5040626;28;20291;-76
2021/08/24 04:46:15;;;;;;;16.47;8.70;;;13.30;99.90;;;;;;5043699;28;20507;-75
2021/08/24 04:48:41;;;;;;;12.00;7.13;;;13.30;99.90;;;;;;5054187;28;20270;-74
2021/08/24 04:51:07;;;;;;;15.27;8.57;;;13.30;99.90;;;;;;5047627;28;20415;-74
2021/08/24 04:53:32;;;;;;;17.57;9.50;;;13.30;99.90;;;;;;5053366;28;20427;-73
2021/08/24 04:55:58;;;;;;;11.87;7.30;;;13.30;99.90;;;;;;5050959;28;20192;-74
2021/08/24 04:58:24;;;;;;;13.90;8.10;;;13.20;99.90;;;;;;5049213;28;20249;-74
2021/08/24 05:00:50;;;;;;;11.33;7.53;;;13.30;99.90;;;;;;5059929;28;20212;-73
2021/08/24 05:03:15;;;;;;;14.97;8.20;;;13.30;99.90;;;;;;5059271;28;20628;-74
2021/08/24 05:05:41;;;;;;;11.20;7.90;;;13.30;99.90;;;;;;5054498;28;20189;-74
2021/08/24 05:08:07;;;;;;;17.37;8.70;;;13.30;99.90;;;;;;5057391;28;20214;-76
2021/08/24 05:10:33;;;;;;;14.87;8.60;;;13.30;99.90;;;;;;5049308;28;20181;-74
2021/08/24 05:13:00;;;;;;;12.90;8.23;;;13.40;99.90;;;;;;5050729;28;20481;-74
2021/08/24 05:15:26;;;;;;;13.10;8.33;;;13.40;99.90;;;;;;5043688;28;20419;-75
2021/08/24 05:17:53;;;;;;;12.40;7.93;;;13.40;99.90;;;;;;5045466;28;20419;-75
2021/08/24 05:20:19;;;;;;;16.97;8.13;;;13.50;99.90;;;;;;5041655;28;20423;-76
2021/08/24 05:22:46;;;;;;;11.30;7.73;;;13.50;99.90;;;;;;5049529;28;20478;-76
2021/08/24 05:25:16;;;;;;;13.40;8.43;;;13.50;99.90;;;;;;5044958;28;20465;-75
2021/08/24 05:27:42;;;;;;;16.43;8.83;;;13.60;99.90;;;;;;5047992;28;20746;-75
2021/08/24 05:30:12;;;;;;;17.40;8.20;;;13.60;99.90;;;;;;5046402;28;20419;-76
2021/08/24 05:32:37;;;;;;;17.00;9.33;;;13.60;99.90;;;;;;5041024;28;20625;-76
2021/08/24 05:35:05;;;;;;;14.73;8.97;;;13.70;99.90;;;;;;5039680;28;20444;-75
2021/08/24 05:37:30;;;;;;;15.93;9.53;;;13.80;99.70;;;;;;5048060;28;20188;-76
2021/08/24 05:39:56;;;;;;;12.37;8.13;;;13.90;99.50;;;;;;5037777;28;20555;-75
2021/08/24 05:42:22;;;;;;;11.47;7.17;;;13.90;99.30;;;;;;5044368;28;20470;-75
2021/08/24 05:44:48;;;;;;;14.40;7.83;;;14.00;99.30;;;;;;5042974;28;20189;-76
2021/08/24 05:47:14;;;;;;;13.70;8.47;;;14.10;99.30;;;;;;5048935;28;20185;-75
2021/08/24 05:49:40;;;;;;;11.77;7.10;;;14.20;99.00;;;;;;5040033;28;20188;-75
2021/08/24 05:52:09;;;;;;;11.97;8.07;;;14.40;98.90;;;;;;5048807;28;20561;-76
2021/08/24 05:54:36;;;;;;;15.67;8.67;;;14.50;98.60;;;;;;5049847;28;20184;-75
2021/08/24 05:57:04;;;;;;;14.07;8.73;;;14.60;98.20;;;;;;5050046;28;20947;-76
2021/08/24 05:59:34;;;;;;;12.60;7.40;;;14.70;97.90;;;;;;5034408;28;20431;-76
2021/08/24 06:01:59;;;;;;;11.50;7.37;;;14.80;97.50;;;;;;5039399;28;20479;-77
2021/08/24 06:04:26;;;;;;;11.03;7.20;;;14.90;96.70;;;;;;5039525;28;20772;-76
2021/08/24 06:06:52;;;;;;;11.70;7.77;;;15.00;96.10;;;;;;5042644;28;20208;-76
2021/08/24 06:09:18;;;;;;;11.53;7.60;;;15.10;95.60;;;;;;5044297;28;20498;-76
2021/08/24 06:11:50;;;;;;;12.33;7.37;;;15.20;94.70;;;;;;5039068;28;20505;-77
2021/08/24 06:14:17;;;;;;;15.37;8.00;;;15.30;93.80;;;;;;5045355;28;20268;-76
2021/08/24 06:16:43;;;;;;;11.83;6.87;;;15.30;93.30;;;;;;5048181;28;20520;-75
2021/08/24 06:19:09;;;;;;;12.60;7.60;;;15.30;93.10;;;;;;5040695;28;20955;-75
2021/08/24 06:21:36;;;;;;;13.07;7.00;;;15.30;93.00;;;;;;5047953;28;20225;-76
2021/08/24 06:24:03;;;;;;;11.77;7.20;;;15.40;93.10;;;;;;5057520;28;20511;-75
2021/08/24 06:26:29;;;;;;;10.30;6.77;;;15.50;92.70;;;;;;5046055;28;20416;-75
2021/08/24 06:28:56;;;;;;;11.60;7.50;;;15.50;92.70;;;;;;5046400;28;20942;-76
2021/08/24 06:31:24;;;;;;;10.27;6.37;;;15.50;92.50;;;;;;5042384;28;20524;-77
2021/08/24 06:33:51;;;;;;;13.43;7.30;;;15.60;92.20;;;;;;5039891;28;20865;-75
2021/08/24 06:36:17;;;;;;;10.83;6.43;;;15.70;92.20;;;;;;5042494;28;20443;-74
2021/08/24 06:38:44;;;;;;;10.30;6.37;;;15.80;92.00;;;;;;5048746;28;20415;-75
2021/08/24 06:41:10;;;;;;;10.10;6.90;;;15.80;91.80;;;;;;5044493;28;20407;-75
2021/08/24 06:43:36;;;;;;;8.20;5.90;;;15.90;91.50;;;;;;5044823;28;20473;-74
2021/08/24 06:46:02;;;;;;;9.40;6.30;;;16.00;90.60;;;;;;5043885;28;20185;-75
2021/08/24 06:48:29;;;;;;;6.77;4.67;;;16.00;90.10;;;;;;5044676;28;20453;-74
2021/08/24 06:50:55;;;;;;;10.93;6.70;;;16.10;89.70;;;;;;5045329;28;20778;-74
2021/08/24 06:53:21;;;;;;;10.03;6.10;;;16.00;89.60;;;;;;5042781;28;20202;-76
2021/08/24 06:55:46;;;;;;;11.50;7.10;;;16.00;88.60;;;;;;5046475;28;20428;-75
2021/08/24 06:58:13;;;;;;;13.83;6.60;;;16.00;88.40;;;;;;5048864;28;20467;-73
2021/08/24 07:00:40;;;;;;;8.10;5.27;;;15.90;88.30;;;;;;5047903;28;20188;-75
2021/08/24 07:03:09;;;;;;;10.03;6.10;;;15.80;88.90;;;;;;5049454;28;20836;-75
2021/08/24 07:05:39;;;;;;;7.90;6.00;;;15.70;89.50;;;;;;5049535;28;20827;-74
2021/08/24 07:08:05;;;;;;;10.47;6.33;;;15.70;88.70;;;;;;5048110;28;20972;-75
2021/08/24 07:10:31;;;;;;;9.20;5.53;;;15.60;88.90;;;;;;5042704;28;20433;-73
2021/08/24 07:12:56;;;;;;;11.10;6.00;;;15.60;89.50;;;;;;5048250;28;20224;-73
2021/08/24 07:15:23;;;;;;;8.73;5.97;;;15.60;88.70;;;;;;5050821;28;20531;-74
2021/08/24 07:17:56;;;;;;;13.10;6.60;;;15.70;88.70;;;;;;5047965;28;20196;-74
2021/08/24 07:20:23;;;;;;;8.13;4.73;;;15.70;88.70;;;;;;5048872;28;20771;-76
2021/08/24 07:22:50;;;;;;;11.53;5.13;;;15.70;87.30;;;;;;5045008;28;20587;-75
2021/08/24 07:25:19;;;;;;;9.47;5.03;;;15.80;87.70;;;;;;5051144;28;20414;-74
2021/08/24 07:27:46;;;;;;;9.30;5.37;;;15.80;87.30;;;;;;5052671;28;20431;-74
2021/08/24 07:30:13;;;;;;;8.27;5.00;;;15.90;86.90;;;;;;5048735;28;20485;-74
2021/08/24 07:32:38;;;;;;;7.77;5.27;;;15.80;86.90;;;;;;5052228;28;20443;-75
2021/08/24 07:35:05;;;;;;;8.63;5.20;;;15.70;87.40;;;;;;5045512;28;20505;-76
2021/08/24 07:37:31;;;;;;;9.20;5.23;;;15.80;87.70;;;;;;5051934;28;20190;-75
2021/08/24 07:39:57;;;;;;;8.67;5.60;;;15.70;87.70;;;;;;5040881;28;20445;-75
2021/08/24 07:42:23;;;;;;;8.40;5.50;;;15.70;88.30;;;;;;5048823;28;21867;-74
2021/08/24 07:44:48;;;;;;;9.77;6.00;;;15.70;88.90;;;;;;5046015;28;20176;-76
2021/08/24 07:47:14;;;;;;;10.83;5.27;;;15.60;88.30;;;;;;5048186;28;20268;-77
2021/08/24 07:49:40;;;;;;;10.67;5.70;;;15.60;88.60;;;;;;5043615;28;20639;-73
2021/08/24 07:52:08;;;;;;;10.13;5.50;;;15.70;88.60;;;;;;5047375;28;20210;-74
2021/08/24 07:54:34;;;;;;;7.60;5.13;;;15.90;88.90;;;;;;5041188;28;20199;-75
2021/08/24 07:57:00;;;;;;;8.57;5.30;;;16.00;88.10;;;;;;5051182;28;21079;-75
2021/08/24 07:59:26;;;;;;;12.70;5.97;;;16.10;87.60;;;;;;5041433;28;20510;-75
2021/08/24 08:01:54;;;;;;;9.80;5.00;;;16.10;86.90;;;;;;5059111;28;20216;-76
2021/08/24 08:04:21;;;;;;;7.97;4.90;;;16.20;87.30;;;;;;5050725;28;20527;-75
2021/08/24 08:06:47;;;;;;;7.70;4.47;;;16.10;85.90;;;;;;5043393;28;20933;-74
2021/08/24 08:09:13;;;;;;;10.53;5.73;;;16.20;86.50;;;;;;5051016;28;20539;-74
2021/08/24 08:11:39;;;;;;;8.73;5.90;;;16.20;85.70;;;;;;5051740;28;20813;-75
2021/08/24 08:14:07;;;;;;;9.23;5.10;;;16.00;86.00;;;;;;5040883;28;20465;-75
2021/08/24 08:16:33;;;;;;;11.17;6.10;;;15.90;87.30;;;;;;5050480;28;20415;-76
2021/08/24 08:18:59;;;;;;;7.60;5.37;;;16.10;87.30;;;;;;5045590;28;20420;-75
2021/08/24 08:21:26;;;;;;;9.90;5.07;;;16.10;86.80;;;;;;5048696;28;20454;-74
2021/08/24 08:23:52;;;;;;;8.37;5.50;;;16.00;85.90;;;;;;5039091;28;20652;-74
2021/08/24 08:26:18;;;;;;;8.90;4.73;;;16.10;86.30;;;;;;5045044;28;20449;-76
2021/08/24 08:28:44;;;;;;;9.37;4.93;;;16.00;85.30;;;;;;5044180;28;20177;-77
2021/08/24 08:31:13;;;;;;;8.40;5.50;;;16.00;85.90;;;;;;5044985;28;20602;-76
2021/08/24 08:33:39;;;;;;;11.60;5.10;;;15.90;86.50;;;;;;5043324;28;20183;-76
2021/08/24 08:36:05;;;;;;;10.53;5.10;;;16.00;86.30;;;;;;5047790;28;20443;-73
2021/08/24 08:38:31;;;;;;;10.23;4.90;;;16.00;84.90;;;;;;5039532;28;20432;-74
2021/08/24 08:41:18;;;;;;;10.30;5.23;;;16.10;85.00;;;;;;5043153;28;20498;-74
2021/08/24 08:44:09;;;;;;;8.33;4.60;;;16.10;84.60;;;;;;5044319;28;20200;-76
2021/08/24 08:46:40;;;;;;;7.77;5.07;;;16.10;84.40;;;;;;5038952;28;20430;-76
2021/08/24 08:49:34;;;;;;;12.60;4.87;;;16.20;84.60;;;;;;5042747;28;20423;-75
2021/08/24 08:52:09;;;;;;;9.10;4.93;;;16.20;84.60;;;;;;5044677;28;20494;-74
2021/08/24 08:55:10;;;;;;;7.63;4.80;;;16.10;85.00;;;;;;5047395;28;20415;-77
2021/08/24 08:57:47;;;;;;;9.30;5.53;;;16.20;84.70;;;;;;5039319;28;20793;-73
2021/08/24 09:00:19;;;;;;;11.60;5.70;;;16.20;84.70;;;;;;5045118;28;20429;-73
2021/08/24 09:03:10;;;;;;;6.23;4.40;;;16.40;85.50;;;;;;5049627;28;20471;-75
2021/08/24 09:05:37;;;;;;;8.57;5.80;;;16.40;85.30;;;;;;5045599;28;20949;-76
2021/08/24 09:08:03;;;;;;;12.40;5.60;;;16.50;85.60;;;;;;5049615;28;20536;-75
2021/08/24 09:10:32;;;;;;;11.30;4.80;;;16.60;85.60;;;;;;5048358;28;20953;-74
2021/08/24 09:13:07;;;;;;;8.37;5.57;;;16.60;85.00;;;;;;5047723;28;20458;-75
2021/08/24 09:15:45;;;;;;;8.47;5.43;;;16.60;85.00;;;;;;5039492;28;20423;-75
2021/08/24 09:18:34;;;;;;;7.37;5.63;;;16.50;85.50;;;;;;5043261;28;20422;-75
2021/08/24 09:21:02;;;;;;;6.50;5.07;;;16.60;85.60;;;;;;5042669;28;20918;-74
2021/08/24 09:23:29;;;;;;;11.50;5.00;;;16.50;85.30;;;;;;5041095;28;20460;-74
2021/08/24 09:26:27;;;;;;;10.00;5.23;;;16.70;85.20;;;;;;5042072;28;20422;-75
2021/08/24 09:28:54;;;;;;;7.67;4.50;;;16.70;85.00;;;;;;5042869;28;20495;-75
2021/08/24 09:31:22;;;;;;;9.10;5.20;;;16.80;84.70;;;;;;5042623;28;20446;-74
2021/08/24 09:33:49;;;;;;;9.47;5.10;;;17.00;84.00;;;;;;5041106;28;20426;-75
2021/08/24 09:36:16;;;;;;;7.00;5.30;;;17.10;83.10;;;;;;5048917;28;20439;-75
2021/08/24 09:38:51;;;;;;;9.63;5.57;;;17.10;83.30;;;;;;5055242;28;20441;-75
2021/08/24 09:41:20;;;;;;;10.93;5.70;;;17.10;83.70;;;;;;5053543;28;20499;-75
2021/08/24 09:43:47;;;;;;;8.17;4.60;;;17.10;84.10;;;;;;5048199;28;21054;-76
2021/08/24 09:46:15;;;;;;;7.33;4.63;;;17.10;83.60;;;;;;5046066;28;20485;-76
2021/08/24 09:48:58;;;;;;;6.30;4.60;;;17.10;83.10;;;;;;5042444;28;20860;-74
2021/08/24 09:51:54;;;;;;;6.50;4.60;;;16.80;83.30;;;;;;5048659;28;20457;-77
2021/08/24 09:54:20;;;;;;;6.50;4.47;;;16.80;84.10;;;;;;5039782;28;20459;-74
2021/08/24 09:56:52;;;;;;;11.50;5.30;;;16.90;83.30;;;;;;5044297;28;20450;-75
2021/08/24 09:59:27;;;;;;;9.27;5.30;;;17.00;83.00;;;;;;5037871;28;20658;-75
2021/08/24 10:01:53;;;;;;;10.30;5.43;;;16.80;83.10;;;;;;5049055;28;20468;-74
2021/08/24 10:04:19;;;;;;;8.07;4.90;;;16.80;83.40;;;;;;5048714;28;20940;-74
2021/08/24 10:07:01;;;;;;;7.40;5.17;;;16.90;83.60;;;;;;5050491;28;20446;-74
2021/08/24 10:09:36;;;;;;;10.10;4.80;;;17.00;83.40;;;;;;5044727;28;20547;-73
2021/08/24 10:12:22;;;;;;;8.53;5.00;;;17.20;83.00;;;;;;5038659;28;20564;-75
2021/08/24 10:14:50;;;;;;;9.17;4.70;;;17.50;82.10;;;;;;5043524;28;20423;-74
2021/08/24 10:17:35;;;;;;;8.63;5.30;;;17.60;81.10;;;;;;5047364;28;20480;-74
2021/08/24 10:20:20;;;;;;;8.27;5.30;;;17.50;80.90;;;;;;5036861;28;20488;-75
2021/08/24 10:22:50;;;;;;;6.17;4.53;;;17.50;80.90;;;;;;5052743;28;20471;-74
2021/08/24 10:25:22;;;;;;;8.17;5.20;;;17.50;81.50;;;;;;5048637;28;20909;-75
2021/08/24 10:28:05;;;;;;;7.33;4.80;;;17.70;81.50;;;;;;5049011;28;20858;-74
2021/08/24 10:30:39;;;;;;;9.37;5.70;;;18.00;80.50;;;;;;5040651;28;20944;-74
2021/08/24 10:33:05;;;;;;;6.47;5.13;;;17.80;80.20;;;;;;5045878;28;20582;-74
2021/08/24 10:35:37;;;;;;;10.50;5.70;;;17.80;80.20;;;;;;5045642;28;20442;-74
2021/08/24 10:38:03;;;;;;;7.50;5.60;;;17.90;80.20;;;;;;5051052;28;20427;-78
2021/08/24 10:40:42;;;;;;;9.73;5.10;;;17.90;79.70;;;;;;5040877;28;21225;-75
2021/08/24 10:43:11;;;;;;;6.77;5.03;;;18.10;79.70;;;;;;5043165;28;20988;-76
2021/08/24 10:45:39;;;;;;;6.10;4.80;;;18.10;79.50;;;;;;5048094;28;20463;-75
2021/08/24 10:48:17;;;;;;;7.20;4.90;;;18.20;79.50;;;;;;5038695;28;20518;-75
2021/08/24 10:50:52;;;;;;;8.50;5.67;;;18.10;79.30;;;;;;5045870;28;20922;-75
2021/08/24 10:53:23;;;;;;;6.60;4.57;;;18.10;79.30;;;;;;5039230;28;20941;-74
2021/08/24 10:55:56;;;;;;;9.20;5.20;;;17.90;80.20;;;;;;5045449;28;20418;-74
2021/08/24 10:58:46;;;;;;;7.67;5.70;;;17.90;80.80;;;;;;5041953;28;20431;-74
2021/08/24 11:01:36;;;;;;;8.83;5.63;;;17.90;80.80;;;;;;5047083;28;20423;-75
2021/08/24 11:04:07;;;;;;;7.67;5.50;;;18.00;80.80;;;;;;5048365;28;20523;-73
2021/08/24 11:07:28;;;;;;;6.20;4.90;;;18.30;80.20;;;;;;5043071;28;20431;-73
2021/08/24 11:10:05;;;;;;;7.67;4.83;;;18.40;78.90;;;;;;5027387;28;20450;-74
2021/08/24 11:12:37;;;;;;;9.30;5.20;;;18.60;78.40;;;;;;5034107;28;20531;-75
2021/08/24 11:15:08;;;;;;;7.50;5.10;;;18.80;77.70;;;;;;5049939;28;20453;-74
2021/08/24 11:17:40;;;;;;;7.50;4.50;;;18.90;77.10;;;;;;5045560;28;20431;-72
2021/08/24 11:20:24;;;;;;;5.90;4.43;;;18.90;76.80;;;;;;5047089;28;20482;-75
2021/08/24 11:22:59;;;;;;;8.70;4.90;;;18.80;77.40;;;;;;5034425;28;20518;-74
2021/08/24 11:25:49;;;;;;;6.37;4.90;;;18.60;78.30;;;;;;5045922;28;20535;-74
2021/08/24 11:28:22;;;;;;;7.00;5.10;;;18.60;77.80;;;;;;5040824;28;20486;-72
2021/08/24 11:31:01;;;;;;;5.83;4.93;;;18.70;77.60;;;;;;5045146;28;20417;-75
2021/08/24 11:33:39;;;;;;;6.90;4.70;;;18.80;77.70;;;;;;5046171;28;20492;-74
2021/08/24 11:36:33;;;;;;;5.20;4.30;;;18.80;77.80;;;;;;5031979;28;20458;-74
2021/08/24 11:39:26;;;;;;;5.90;4.77;;;18.50;77.80;;;;;;5031839;28;20534;-75
2021/08/24 11:41:59;;;;;;;10.27;6.13;;;18.30;79.00;;;;;;5046883;28;20436;-75
2021/08/24 11:44:40;;;;;;;6.40;5.03;;;18.30;79.70;;;;;;5031928;28;21144;-72
2021/08/24 11:47:13;;;;;;;6.30;5.00;;;18.30;79.60;;;;;;5045515;28;20426;-74
2021/08/24 11:50:04;;;;;;;7.97;5.03;;;18.40;79.60;;;;;;5049478;28;20482;-74
2021/08/24 11:52:48;;;;;;;7.50;5.60;;;18.40;79.20;;;;;;5043960;28;20512;-75
2021/08/24 11:55:16;;;;;;;7.97;6.00;;;18.30;79.90;;;;;;5046358;28;20425;-74
2021/08/24 11:58:08;;;;;;;8.00;5.80;;;18.30;80.00;;;;;;5046242;28;20485;-74
2021/08/24 12:00:34;;;;;;;8.97;5.23;;;18.30;79.60;;;;;;5047213;28;20423;-75
2021/08/24 12:03:08;;;;;;;7.47;5.80;;;18.40;79.90;;;;;;5050782;28;20478;-74
2021/08/24 12:05:42;;;;;;;8.73;5.70;;;18.60;79.20;;;;;;5047028;28;20428;-76
2021/08/24 12:08:24;;;;;;;8.97;5.33;;;18.80;78.70;;;;;;5050890;28;20784;-74
2021/08/24 12:10:50;;;;;;;8.47;5.47;;;18.80;77.60;;;;;;5051309;28;20443;-73
2021/08/24 12:13:28;;;;;;;7.70;5.60;;;18.80;78.00;;;;;;5049884;28;20817;-75
2021/08/24 12:16:23;;;;;;;8.40;5.20;;;18.80;78.40;;;;;;5038362;28;20273;-73
2021/08/24 12:18:53;;;;;;;6.87;5.10;;;19.00;77.80;;;;;;5040658;28;20467;-74
2021/08/24 12:21:37;;;;;;;8.57;5.60;;;19.20;78.10;;;;;;5047785;28;20958;-74
2021/08/24 12:24:17;;;;;;;11.40;5.93;;;18.90;78.30;;;;;;5040110;28;20435;-73
2021/08/24 12:26:43;;;;;;;12.43;5.80;;;18.90;78.70;;;;;;5044072;28;20450;-73
2021/08/24 12:29:32;;;;;;;8.17;5.60;;;18.80;78.70;;;;;;5047941;28;20442;-75
2021/08/24 12:32:00;;;;;;;7.57;5.10;;;18.70;79.50;;;;;;5041481;28;20323;-74
2021/08/24 12:34:35;;;;;;;9.23;5.83;;;18.90;79.00;;;;;;5047755;28;20437;-74
2021/08/24 12:37:10;;;;;;;8.30;5.40;;;18.70;79.00;;;;;;5039243;28;20472;-75
2021/08/24 12:39:39;;;;;;;5.40;5.00;;;18.80;79.60;;;;;;5041107;28;20427;-74
2021/08/24 12:42:33;;;;;;;8.83;5.60;;;18.80;79.70;;;;;;5044411;28;20922;-74
2021/08/24 12:45:02;;;;;;;14.03;5.60;;;18.80;79.50;;;;;;5037518;28;20419;-74
2021/08/24 12:47:39;;;;;;;11.20;6.20;;;18.70;80.20;;;;;;5046047;28;20432;-74
2021/08/24 12:50:08;;;;;;;10.00;6.50;;;18.50;80.60;;;;;;5045919;28;20417;-75
2021/08/24 12:52:38;;;;;;;9.43;6.17;;;18.30;81.10;;;;;;5041677;28;20453;-73
2021/08/24 12:55:35;;;;;;;7.33;5.23;;;18.10;81.90;;;;;;5044512;28;20423;-75
2021/08/24 12:58:08;;;;;;;11.03;6.90;;;18.00;83.00;;;;;;5038161;28;20427;-73
2021/08/24 13:00:39;;;;;;;7.30;5.57;;;18.20;82.80;;;;;;5040664;28;20423;-74
2021/08/24 13:03:16;;;;;;;8.37;5.47;;;18.20;82.70;;;;;;5046887;28;20570;-74
2021/08/24 13:05:44;;;;;;;9.17;5.60;;;18.10;82.40;;;;;;5040079;28;20420;-73